createdAt,value
2023-01-19T00:00:40.675Z,73.06
2023-01-19T00:03:16.402Z,73.74
2023-01-19T00:05:46.534Z,73.67
2023-01-19T00:08:17.398Z,73.60
2023-01-19T00:10:48.891Z,75.30
2023-01-19T00:13:16.207Z,75.85
2023-01-19T00:15:44.927Z,76.56
2023-01-19T00:18:12.412Z,77.33
2023-01-19T00:20:41.794Z,78.39
2023-01-19T00:23:09.893Z,78.64
2023-01-19T00:25:44.844Z,78.93
2023-01-19T00:28:18.688Z,79.21
2023-01-19T00:30:46.201Z,80.59
2023-01-19T00:33:15.062Z,79.62
2023-01-19T00:35:46.215Z,79.49
2023-01-19T00:38:13.404Z,79.29
2023-01-19T00:40:44.865Z,80.66
2023-01-19T00:43:15.521Z,80.80
2023-01-19T00:45:43.695Z,80.94
2023-01-19T00:48:10.680Z,80.23
2023-01-19T00:50:39.356Z,80.32
2023-01-19T00:53:06.458Z,82.41
2023-01-19T00:55:36.407Z,82.77
2023-01-19T00:58:25.720Z,84.14
2023-01-19T01:00:54.014Z,85.59
2023-01-19T01:03:21.847Z,85.58
2023-01-19T01:05:49.785Z,85.06
2023-01-19T01:08:16.969Z,85.23
2023-01-19T01:10:44.246Z,84.34
2023-01-19T01:13:22.194Z,85.24
2023-01-19T01:15:52.651Z,84.65
2023-01-19T01:18:20.454Z,85.48
2023-01-19T01:20:47.529Z,83.38
2023-01-19T01:23:14.954Z,84.74
2023-01-19T01:25:42.925Z,85.37
2023-01-19T01:28:10.866Z,85.44
2023-01-19T01:30:41.331Z,86.35
2023-01-19T01:33:09.403Z,87.46
2023-01-19T01:35:36.947Z,88.39
2023-01-19T01:38:04.491Z,89.38
2023-01-19T01:40:31.708Z,88.38
2023-01-19T01:42:59.085Z,89.56
2023-01-19T01:45:34.139Z,89.00
2023-01-19T01:48:27.316Z,88.49
2023-01-19T01:51:21.909Z,88.24
2023-01-19T01:54:19.603Z,87.50
2023-01-19T01:56:56.435Z,87.91
2023-01-19T01:59:39.421Z,88.02
2023-01-19T02:02:48.549Z,88.82
2023-01-19T02:05:25.536Z,88.85
2023-01-19T02:08:16.256Z,88.29
2023-01-19T02:11:03.646Z,88.18
2023-01-19T02:13:33.315Z,90.37
2023-01-19T02:16:20.470Z,91.67
2023-01-19T02:18:47.843Z,90.93
2023-01-19T02:21:44.159Z,91.84
2023-01-19T02:24:11.700Z,91.90
2023-01-19T02:26:47.653Z,92.10
2023-01-19T02:29:21.436Z,92.16
2023-01-19T02:31:49.250Z,92.59
2023-01-19T02:34:35.982Z,92.85
2023-01-19T02:37:15.496Z,91.07
2023-01-19T02:39:51.486Z,91.71
2023-01-19T02:42:33.736Z,91.70
2023-01-19T02:45:06.959Z,91.13
2023-01-19T02:47:44.490Z,92.33
2023-01-19T02:50:32.131Z,93.67
2023-01-19T02:53:12.971Z,93.43
2023-01-19T02:55:40.940Z,94.09
2023-01-19T02:58:44.636Z,93.61
2023-01-19T03:01:36.570Z,93.93
2023-01-19T03:04:32.026Z,92.67
2023-01-19T03:07:03.495Z,92.06
2023-01-19T03:09:41.641Z,91.74
2023-01-19T03:12:38.208Z,91.78
2023-01-19T03:15:17.484Z,91.73
2023-01-19T03:17:48.835Z,89.95
2023-01-19T03:20:20.662Z,91.28
2023-01-19T03:22:52.875Z,89.63
2023-01-19T03:25:23.684Z,90.58
2023-01-19T03:27:54.455Z,91.71
2023-01-19T03:30:27.725Z,92.56
2023-01-19T03:33:09.676Z,93.89
2023-01-19T03:35:40.954Z,93.83
2023-01-19T03:38:15.002Z,94.67
2023-01-19T03:40:44.820Z,94.84
2023-01-19T03:43:13.556Z,94.49
2023-01-19T03:45:43.283Z,95.01
2023-01-19T03:48:12.617Z,94.48
2023-01-19T03:50:39.608Z,95.08
2023-01-19T03:53:13.021Z,94.72
2023-01-19T03:55:43.404Z,94.43
2023-01-19T03:58:10.584Z,94.19
2023-01-19T04:00:37.941Z,94.11
2023-01-19T04:03:06.987Z,94.61
2023-01-19T04:05:34.014Z,94.72
2023-01-19T04:08:01.282Z,95.50
2023-01-19T04:10:28.626Z,95.59
2023-01-19T04:13:00.438Z,95.34
2023-01-19T04:15:29.021Z,95.42
2023-01-19T04:17:58.866Z,95.17
2023-01-19T04:20:28.431Z,95.08
2023-01-19T04:23:00.332Z,95.43
2023-01-19T04:25:28.811Z,95.56
2023-01-19T04:27:58.085Z,95.95
2023-01-19T04:30:26.528Z,96.29
2023-01-19T04:32:55.692Z,96.83
2023-01-19T04:35:24.100Z,98.05
2023-01-19T04:37:51.275Z,96.94
2023-01-19T04:40:19.069Z,96.88
2023-01-19T04:42:46.505Z,97.63
2023-01-19T04:45:14.557Z,96.97
2023-01-19T04:47:42.953Z,96.82
2023-01-19T04:50:11.381Z,96.29
2023-01-19T04:52:38.982Z,96.66
2023-01-19T04:55:08.276Z,95.44
2023-01-19T04:57:35.697Z,95.65
2023-01-19T05:00:03.255Z,96.18
2023-01-19T05:02:30.760Z,95.80
2023-01-19T05:04:57.762Z,96.11
2023-01-19T05:07:25.228Z,96.38
2023-01-19T05:09:52.598Z,96.46
2023-01-19T05:12:20.215Z,96.16
2023-01-19T05:14:47.276Z,96.42
2023-01-19T05:17:14.323Z,99.53
2023-01-19T05:19:41.643Z,100.00
2023-01-19T05:22:08.776Z,100.00
2023-01-19T05:24:35.795Z,100.00
2023-01-19T05:27:03.160Z,100.00
2023-01-19T05:29:30.336Z,100.00
2023-01-19T05:31:58.554Z,100.00
2023-01-19T05:34:25.792Z,100.00
2023-01-19T05:36:52.841Z,100.00
2023-01-19T05:39:22.200Z,100.00
2023-01-19T05:41:49.143Z,100.00
2023-01-19T05:44:15.986Z,100.00
2023-01-19T05:46:43.010Z,100.00
2023-01-19T05:49:10.274Z,99.09
2023-01-19T05:51:40.715Z,98.35
2023-01-19T05:54:09.114Z,97.74
2023-01-19T05:56:37.276Z,96.25
2023-01-19T05:59:10.364Z,96.67
2023-01-19T06:01:39.911Z,95.72
2023-01-19T06:04:07.785Z,95.55
2023-01-19T06:06:35.200Z,93.98
2023-01-19T06:09:06.395Z,92.82
2023-01-19T06:11:34.201Z,93.00
2023-01-19T06:14:01.432Z,92.55
2023-01-19T06:16:28.600Z,92.88
2023-01-19T06:18:56.324Z,92.97
2023-01-19T06:21:24.364Z,92.82
2023-01-19T06:23:52.248Z,92.90
2023-01-19T06:26:19.223Z,93.19
2023-01-19T06:28:47.360Z,93.65
2023-01-19T06:31:15.196Z,94.14
2023-01-19T06:33:42.301Z,93.59
2023-01-19T06:36:10.073Z,94.15
2023-01-19T06:38:37.108Z,93.90
2023-01-19T06:41:05.078Z,94.18
2023-01-19T06:43:34.396Z,94.02
2023-01-19T06:46:01.532Z,93.98
2023-01-19T06:48:28.632Z,94.23
2023-01-19T06:50:58.412Z,94.75
2023-01-19T06:53:27.900Z,94.03
2023-01-19T06:56:03.128Z,92.92
2023-01-19T06:58:31.556Z,92.80
2023-01-19T07:01:08.319Z,92.51
2023-01-19T07:03:37.146Z,92.04
2023-01-19T07:06:07.094Z,92.24
2023-01-19T07:08:35.719Z,92.02
2023-01-19T07:11:24.423Z,90.62
2023-01-19T07:13:59.840Z,91.33
2023-01-19T07:16:27.038Z,90.46
2023-01-19T07:18:57.398Z,87.67
2023-01-19T07:21:24.810Z,85.81
2023-01-19T07:23:52.736Z,82.90
2023-01-19T07:26:22.196Z,80.89
2023-01-19T07:28:50.541Z,81.35
2023-01-19T07:31:18.504Z,81.29
2023-01-19T07:33:46.376Z,80.80
2023-01-19T07:36:14.135Z,82.31
2023-01-19T07:38:42.459Z,82.67
2023-01-19T07:41:10.428Z,80.95
2023-01-19T07:43:39.088Z,80.00
2023-01-19T07:46:09.454Z,80.66
2023-01-19T07:48:36.609Z,80.86
2023-01-19T07:51:11.056Z,79.95
2023-01-19T07:53:40.199Z,79.23
2023-01-19T07:56:08.286Z,77.51
2023-01-19T07:58:36.813Z,75.66
2023-01-19T08:01:14.929Z,74.93
2023-01-19T08:03:43.375Z,74.85
2023-01-19T08:11:27.611Z,76.00
2023-01-19T08:13:59.474Z,75.69
2023-01-19T08:16:28.739Z,75.69
2023-01-19T08:18:56.257Z,75.22
2023-01-19T08:24:00.568Z,75.42
2023-01-19T08:26:31.419Z,76.75
2023-01-19T08:29:22.916Z,75.29
2023-01-19T08:31:50.752Z,73.56
2023-01-19T08:34:18.039Z,74.18
2023-01-19T08:36:45.340Z,73.60
2023-01-19T08:39:15.434Z,73.28
2023-01-19T08:41:44.021Z,73.59
2023-01-19T08:48:08.793Z,74.76
2023-01-19T08:50:36.244Z,74.73
2023-01-19T08:53:06.619Z,72.00
2023-01-19T08:55:36.179Z,72.47
2023-01-19T08:58:07.792Z,70.34
2023-01-19T09:00:38.179Z,69.96
2023-01-19T09:03:20.215Z,67.86
2023-01-19T09:05:47.961Z,69.10
2023-01-19T09:08:15.528Z,68.28
2023-01-19T09:10:52.369Z,68.45
2023-01-19T09:13:40.590Z,68.42
2023-01-19T09:16:12.118Z,68.14
2023-01-19T09:18:40.099Z,67.69
2023-01-19T09:21:07.484Z,67.89
2023-01-19T09:23:34.834Z,67.66
2023-01-19T09:26:06.190Z,69.58
2023-01-19T09:28:33.609Z,70.70
2023-01-19T09:31:11.556Z,70.26
2023-01-19T09:33:39.831Z,71.28
2023-01-19T09:36:09.656Z,70.82
2023-01-19T09:38:39.948Z,69.80
2023-01-19T09:44:51.415Z,71.19
2023-01-19T09:47:23.861Z,70.38
2023-01-19T09:50:32.755Z,71.29
2023-01-19T09:53:40.353Z,70.01
2023-01-19T09:56:55.295Z,68.29
2023-01-19T09:59:42.157Z,67.90
2023-01-19T10:03:08.947Z,67.38
2023-01-19T10:09:29.345Z,66.93
2023-01-19T10:12:19.054Z,67.29
2023-01-19T10:15:13.970Z,66.31
2023-01-19T10:17:49.938Z,67.44
2023-01-19T10:20:40.972Z,66.50
2023-01-19T10:23:29.624Z,66.71
2023-01-19T10:26:56.874Z,66.29
2023-01-19T10:29:40.088Z,66.44
2023-01-19T10:32:44.776Z,65.77
2023-01-19T10:35:25.330Z,66.33
2023-01-19T10:38:14.372Z,65.40
2023-01-19T10:41:18.555Z,66.00
2023-01-19T10:43:47.510Z,66.35
2023-01-19T10:46:21.122Z,64.62
2023-01-19T10:48:54.860Z,63.76
2023-01-19T10:51:23.907Z,64.06
2023-01-19T10:54:05.730Z,63.52
2023-01-19T10:56:37.516Z,63.25
2023-01-19T10:59:07.898Z,64.09
2023-01-19T11:01:37.640Z,64.07
2023-01-19T11:04:28.462Z,63.42
2023-01-19T11:07:16.619Z,63.14
2023-01-19T11:09:44.147Z,63.74
2023-01-19T11:12:22.705Z,62.58
2023-01-19T11:14:53.947Z,62.55
2023-01-19T11:17:27.556Z,62.49
2023-01-19T11:20:02.277Z,62.46
2023-01-19T11:22:32.888Z,61.90
2023-01-19T11:25:05.392Z,62.40
2023-01-19T11:28:04.381Z,61.81
2023-01-19T11:30:31.599Z,62.87
2023-01-19T11:32:58.763Z,62.42
2023-01-19T11:35:34.798Z,62.38
2023-01-19T11:46:01.562Z,61.28
2023-01-19T11:59:13.824Z,62.01
2023-01-19T12:27:59.639Z,63.46
2023-01-19T12:30:29.849Z,63.78
2023-01-19T12:49:12.287Z,61.44
2023-01-19T12:51:39.325Z,60.89
2023-01-19T12:59:27.731Z,60.92
2023-01-19T13:13:18.602Z,61.21
2023-01-19T13:21:09.297Z,60.71
2023-01-19T13:37:02.467Z,59.95
2023-01-19T13:39:46.058Z,59.61
2023-01-19T14:09:27.819Z,56.54
2023-01-19T14:14:30.232Z,58.15
2023-01-19T14:16:57.306Z,57.25
2023-01-19T14:19:24.363Z,61.68
2023-01-19T14:22:03.894Z,56.22
2023-01-19T14:24:35.308Z,55.94
2023-01-19T14:27:24.424Z,54.96
2023-01-19T14:29:55.084Z,54.76
2023-01-19T14:32:28.225Z,55.27
2023-01-19T14:35:07.401Z,55.01
2023-01-19T14:37:37.859Z,55.34
2023-01-19T14:40:21.817Z,55.83
2023-01-19T14:43:07.970Z,56.39
2023-01-19T14:45:39.092Z,56.31
2023-01-19T14:48:08.048Z,56.90
2023-01-19T14:50:46.069Z,57.69
2023-01-19T14:53:18.325Z,57.53
2023-01-19T14:55:54.762Z,57.86
2023-01-19T14:58:24.725Z,57.50
2023-01-19T15:00:56.221Z,58.58
2023-01-19T15:03:34.883Z,58.58
2023-01-19T15:06:21.266Z,58.53
2023-01-19T15:08:53.715Z,59.27
2023-01-19T15:11:28.423Z,59.36
2023-01-19T15:13:59.223Z,60.09
2023-01-19T15:16:27.973Z,61.08
2023-01-19T15:18:55.590Z,61.16
2023-01-19T15:21:26.862Z,62.32
2023-01-19T15:24:03.801Z,62.82
2023-01-19T15:26:30.972Z,63.48
2023-01-19T15:28:58.083Z,64.19
2023-01-19T15:31:28.319Z,64.11
2023-01-19T15:33:55.638Z,65.24
2023-01-19T15:36:24.520Z,64.74
2023-01-19T15:38:51.696Z,65.26
2023-01-19T15:41:30.367Z,65.72
2023-01-19T15:43:58.051Z,65.60
2023-01-19T15:46:26.054Z,65.11
2023-01-19T15:48:53.504Z,65.27
2023-01-19T15:51:25.865Z,64.53
2023-01-19T15:53:55.265Z,63.25
2023-01-19T15:56:27.541Z,64.49
2023-01-19T15:58:57.722Z,64.72
2023-01-19T16:01:35.315Z,65.20
2023-01-19T16:04:07.614Z,66.14
2023-01-19T16:06:34.841Z,66.15
2023-01-19T16:09:04.366Z,64.84
2023-01-19T16:16:09.560Z,65.54
2023-01-19T16:18:36.671Z,65.82
2023-01-19T16:21:03.716Z,66.43
2023-01-19T16:23:30.699Z,66.26
2023-01-19T16:26:07.973Z,66.48
2023-01-19T16:28:36.044Z,66.85
2023-01-19T16:31:03.596Z,66.61
2023-01-19T16:33:31.084Z,66.77
2023-01-19T16:35:57.910Z,69.34
2023-01-19T16:38:25.369Z,67.60
2023-01-19T16:40:52.216Z,69.17
2023-01-19T16:43:19.130Z,66.12
2023-01-19T16:46:01.247Z,67.88
2023-01-19T16:48:29.055Z,67.04
2023-01-19T16:51:06.841Z,66.90
2023-01-19T16:53:35.558Z,67.79
2023-01-19T16:56:14.358Z,68.29
2023-01-19T16:58:43.793Z,68.40
2023-01-19T17:01:13.445Z,69.07
2023-01-19T17:03:42.574Z,68.81
2023-01-19T17:06:12.521Z,69.06
2023-01-19T17:08:40.007Z,69.26
2023-01-19T17:11:21.310Z,69.57
2023-01-19T17:14:00.185Z,69.58
2023-01-19T17:16:29.536Z,68.76
2023-01-19T17:18:58.002Z,70.29
2023-01-19T17:21:25.266Z,69.31
2023-01-19T17:23:54.500Z,70.02
2023-01-19T17:26:22.877Z,69.59
2023-01-19T17:28:49.744Z,69.39
2023-01-19T17:31:19.804Z,69.46
2023-01-19T17:33:49.245Z,70.61
2023-01-19T17:36:22.752Z,71.07
2023-01-19T17:38:50.389Z,71.02
2023-01-19T17:45:37.029Z,72.46
2023-01-19T17:48:05.276Z,71.90
2023-01-19T17:50:34.836Z,74.59
2023-01-19T17:53:26.210Z,75.90
2023-01-19T17:56:14.791Z,78.65
2023-01-19T17:58:42.572Z,79.51
2023-01-19T18:16:20.810Z,87.21
2023-01-19T18:19:26.699Z,87.99
2023-01-19T18:21:53.749Z,88.66
2023-01-19T18:24:20.606Z,88.83
2023-01-19T18:26:48.353Z,89.09
2023-01-19T18:29:17.050Z,88.99
2023-01-19T18:31:44.199Z,88.27
2023-01-19T18:34:11.312Z,89.27
2023-01-19T18:36:46.810Z,89.10
2023-01-19T18:39:13.896Z,89.84
2023-01-19T18:41:42.453Z,89.86
2023-01-19T18:44:09.992Z,89.69
2023-01-19T18:46:39.931Z,89.51
2023-01-19T18:49:07.163Z,88.81
2023-01-19T18:51:34.412Z,89.24
2023-01-19T18:54:56.838Z,89.61
2023-01-19T18:57:24.232Z,88.92
2023-01-19T18:59:51.471Z,88.50
2023-01-19T19:02:18.745Z,88.91
2023-01-19T19:04:48.066Z,89.10
2023-01-19T19:07:15.161Z,88.15
2023-01-19T19:09:42.121Z,87.65
2023-01-19T19:12:19.659Z,87.56
2023-01-19T19:14:46.571Z,87.79
2023-01-19T19:17:14.037Z,88.51
2023-01-19T19:19:41.098Z,87.05
2023-01-19T19:22:08.158Z,86.72
2023-01-19T19:24:36.059Z,87.22
2023-01-19T19:27:03.777Z,86.29
2023-01-19T19:29:31.689Z,87.02
2023-01-19T19:31:59.198Z,86.45
2023-01-19T19:34:26.477Z,86.62
2023-01-19T19:36:53.598Z,86.64
2023-01-19T19:39:20.607Z,86.19
2023-01-19T19:41:47.849Z,85.93
2023-01-19T19:44:15.060Z,84.56
2023-01-19T19:46:42.194Z,83.41
2023-01-19T19:49:09.288Z,83.96
2023-01-19T19:51:36.407Z,82.33
2023-01-19T19:54:03.516Z,83.50
2023-01-19T19:56:34.476Z,81.89
2023-01-19T19:59:01.778Z,81.24
2023-01-19T20:01:32.834Z,80.14
2023-01-19T20:04:06.725Z,79.61
2023-01-19T20:06:39.207Z,78.71
2023-01-19T20:09:16.054Z,80.19
2023-01-19T20:11:46.095Z,79.35
2023-01-19T20:14:16.567Z,78.50
2023-01-19T20:16:44.755Z,77.53
2023-01-19T20:19:11.933Z,77.25
2023-01-19T20:21:41.986Z,78.67
2023-01-19T20:24:14.778Z,77.80
2023-01-19T20:26:52.032Z,78.51
2023-01-19T20:29:20.738Z,79.87
2023-01-19T20:31:51.723Z,79.12
2023-01-19T20:34:22.887Z,79.93
2023-01-19T20:36:52.157Z,79.63
2023-01-19T20:39:22.745Z,79.40
2023-01-19T20:41:51.360Z,79.36
2023-01-19T20:44:27.129Z,78.54
2023-01-19T20:46:55.296Z,78.61
2023-01-19T20:49:22.533Z,78.49
2023-01-19T20:51:51.413Z,78.93
2023-01-19T20:54:20.639Z,78.37
2023-01-19T20:56:48.174Z,78.64
2023-01-19T20:59:15.296Z,78.89
2023-01-19T21:01:42.882Z,79.67
2023-01-19T21:04:12.912Z,79.49
2023-01-19T21:06:40.917Z,80.40
2023-01-19T21:09:09.797Z,79.22
2023-01-19T21:11:38.600Z,79.93
2023-01-19T21:14:06.250Z,80.17
2023-01-19T21:16:52.144Z,81.11
2023-01-19T21:19:19.225Z,80.78
2023-01-19T21:21:46.347Z,80.86
2023-01-19T21:24:13.498Z,81.67
2023-01-19T21:26:41.873Z,81.41
2023-01-19T21:29:13.537Z,81.90
2023-01-19T21:31:41.517Z,82.92
2023-01-19T21:34:09.279Z,82.93
2023-01-19T21:36:37.907Z,84.22
2023-01-19T21:39:06.582Z,84.11
2023-01-19T21:41:36.046Z,84.40
2023-01-19T21:44:03.395Z,84.70
2023-01-19T21:50:56.332Z,85.37
2023-01-19T21:53:23.287Z,87.05
2023-01-19T21:55:50.588Z,86.58
2023-01-19T21:58:17.563Z,88.74
2023-01-19T22:00:45.662Z,88.32
2023-01-19T22:03:12.625Z,89.16
2023-01-19T22:09:27.367Z,90.48
2023-01-19T22:11:54.429Z,90.68
2023-01-19T22:14:21.268Z,91.72
2023-01-19T22:16:48.180Z,91.01
2023-01-19T22:19:15.046Z,90.71
2023-01-19T22:21:41.982Z,91.60
2023-01-19T22:24:31.925Z,92.14
2023-01-19T22:26:59.086Z,92.86
2023-01-19T22:29:47.577Z,91.87
2023-01-19T22:32:14.553Z,92.13
2023-01-19T22:34:41.487Z,93.74
2023-01-19T22:37:08.760Z,91.74
2023-01-19T22:39:35.778Z,91.83
2023-01-19T22:42:02.789Z,91.12
2023-01-19T22:44:29.979Z,90.00
2023-01-19T22:46:56.772Z,91.49
2023-01-19T22:49:23.772Z,90.79
2023-01-19T22:51:50.765Z,91.03
2023-01-19T22:54:17.590Z,91.46
2023-01-19T22:56:45.906Z,92.15
2023-01-19T22:59:13.020Z,91.96
2023-01-19T23:01:44.127Z,93.11
2023-01-19T23:04:13.960Z,93.32
2023-01-19T23:06:41.049Z,92.51
2023-01-19T23:09:12.269Z,92.85
2023-01-19T23:11:41.931Z,92.35
2023-01-19T23:14:14.049Z,92.53
2023-01-19T23:16:43.796Z,93.64
2023-01-19T23:19:12.306Z,91.67
2023-01-19T23:21:39.721Z,91.42
2023-01-19T23:24:07.322Z,91.83
2023-01-19T23:26:40.379Z,92.90
2023-01-19T23:29:13.155Z,92.24
2023-01-19T23:31:44.057Z,92.63
2023-01-19T23:34:12.609Z,92.43
2023-01-19T23:36:41.387Z,92.71
2023-01-19T23:39:16.800Z,91.23
2023-01-19T23:41:43.889Z,91.63
2023-01-19T23:44:10.808Z,90.95
2023-01-19T23:46:38.122Z,90.89
2023-01-19T23:49:05.077Z,92.84
2023-01-19T23:51:33.465Z,91.82
2023-01-19T23:54:01.278Z,91.97
2023-01-19T23:56:32.017Z,91.94
2023-01-19T23:59:01.917Z,91.50
